Time;durP1;ratioP1;P1;durP2;ratioP2;P2;SDS_P1;SDS_P2;PMS_P1;PMS_P2;Temp;Humidity;BMP_temperature;BMP_pressure;BME280_temperature;BME280_humidity;BME280_pressure;Samples;Min_cycle;Max_cycle;Signal;HPM_P1;HPM_P2
2023/12/07 00:02:14;;;;;;;;;29.00;25.00;;;;;8.74;75.99;101538.00;5038486;28;47143;-69
2023/12/07 00:04:40;;;;;;;;;32.25;29.00;;;;;8.64;75.51;101530.16;5042693;28;45257;-69
2023/12/07 00:07:05;;;;;;;;;31.75;26.75;;;;;8.55;75.59;101529.38;5040471;28;45632;-69
2023/12/07 00:09:30;;;;;;;;;25.75;23.25;;;;;8.42;75.37;101512.63;5022633;28;48150;-69
2023/12/07 00:11:56;;;;;;;;;26.00;23.50;;;;;8.52;75.88;101528.50;5025126;28;45261;-69
2023/12/07 00:14:21;;;;;;;;;28.50;25.75;;;;;8.61;75.90;101545.28;5050271;28;45407;-69
2023/12/07 00:16:46;;;;;;;;;30.00;28.75;;;;;8.56;76.40;101532.00;5029168;28;45501;-69
2023/12/07 00:19:12;;;;;;;;;30.00;23.50;;;;;8.47;75.82;101517.03;5031324;28;48254;-69
2023/12/07 00:21:37;;;;;;;;;31.75;26.00;;;;;8.42;75.40;101510.84;5030201;28;45415;-69
2023/12/07 00:24:02;;;;;;;;;22.75;22.00;;;;;8.26;76.09;101483.53;5018542;28;45324;-69
2023/12/07 00:26:28;;;;;;;;;26.00;24.25;;;;;8.26;76.07;101486.19;5023339;28;45446;-69
2023/12/07 00:28:53;;;;;;;;;26.00;26.00;;;;;8.52;75.88;101515.22;5031611;28;46591;-69
2023/12/07 00:31:20;;;;;;;;;28.25;26.75;;;;;8.56;76.13;101518.72;5030585;28;45316;-68
2023/12/07 00:33:45;;;;;;;;;36.50;30.50;;;;;8.32;75.78;101477.28;5031119;28;45358;-69
2023/12/07 00:36:12;;;;;;;;;29.00;25.00;;;;;8.34;75.80;101467.50;5029825;28;46208;-69
2023/12/07 00:38:37;;;;;;;;;29.25;25.50;;;;;8.42;75.87;101488.66;5032803;28;45969;-69
2023/12/07 00:41:03;;;;;;;;;25.75;20.50;;;;;8.41;76.28;101485.13;5030652;28;45493;-69
2023/12/07 00:43:28;;;;;;;;;29.25;24.75;;;;;8.33;76.13;101492.31;5032809;28;45462;-69
2023/12/07 00:45:54;;;;;;;;;27.75;24.00;;;;;8.13;75.87;101473.91;5035427;28;45576;-69
2023/12/07 00:48:19;;;;;;;;;25.00;23.50;;;;;8.26;76.07;101517.25;5021445;28;45588;-69
2023/12/07 00:50:45;;;;;;;;;29.50;24.00;;;;;8.09;75.60;101486.38;5026737;28;45372;-69
2023/12/07 00:53:10;;;;;;;;;25.50;22.00;;;;;8.15;75.69;101504.94;5021548;28;45807;-69
2023/12/07 00:55:35;;;;;;;;;23.50;22.50;;;;;8.09;75.92;101506.78;5032902;28;45343;-69
2023/12/07 00:58:01;;;;;;;;;29.50;25.75;;;;;8.14;76.41;101507.59;5033881;28;46429;-69
2023/12/07 01:00:27;;;;;;;;;24.50;20.75;;;;;8.18;76.08;101519.09;5034100;28;45693;-69
2023/12/07 01:02:52;;;;;;;;;27.25;23.00;;;;;7.74;75.62;101461.00;5029157;28;45444;-69
2023/12/07 01:05:17;;;;;;;;;26.75;23.75;;;;;8.12;76.34;101525.38;5027575;28;45327;-69
2023/12/07 01:07:43;;;;;;;;;28.25;22.50;;;;;7.82;76.94;101476.91;5045868;28;45397;-69
2023/12/07 01:10:08;;;;;;;;;25.00;22.25;;;;;7.99;76.70;101503.31;5049669;28;47552;-68
2023/12/07 01:12:35;;;;;;;;;26.50;22.50;;;;;7.93;76.63;101490.94;5041054;28;45587;-69
2023/12/07 01:15:00;;;;;;;;;28.50;25.75;;;;;8.01;76.34;101520.13;5040726;28;45536;-69
2023/12/07 01:17:26;;;;;;;;;22.00;20.00;;;;;7.86;76.45;101501.66;5040898;28;45780;-69
2023/12/07 01:19:51;;;;;;;;;27.50;20.50;;;;;7.83;76.86;101505.22;5039603;28;45376;-69
2023/12/07 01:22:16;;;;;;;;;27.75;25.25;;;;;7.99;77.04;101521.94;5039968;28;45412;-69
2023/12/07 01:24:42;;;;;;;;;28.25;22.00;;;;;8.05;77.09;101527.19;5053555;28;58410;-69
2023/12/07 01:27:07;;;;;;;;;28.50;22.00;;;;;7.87;77.12;101487.47;5023245;28;48167;-69
2023/12/07 01:29:32;;;;;;;;;22.50;22.00;;;;;7.74;76.95;101468.97;5022549;28;69496;-69
2023/12/07 01:31:58;;;;;;;;;27.25;24.25;;;;;8.07;76.87;101514.75;5026784;28;45446;-68
2023/12/07 01:34:23;;;;;;;;;24.75;22.25;;;;;7.84;77.02;101461.81;5053389;28;45416;-69
2023/12/07 01:36:48;;;;;;;;;26.25;23.25;;;;;7.83;77.08;101460.03;5049868;28;46992;-68
2023/12/07 01:39:14;;;;;;;;;25.25;22.00;;;;;8.01;76.86;101487.34;5054328;28;45436;-69
2023/12/07 01:41:40;;;;;;;;;26.25;23.50;;;;;8.04;76.73;101501.50;5042238;28;45452;-69
2023/12/07 01:44:05;;;;;;;;;22.50;19.25;;;;;7.97;77.02;101489.16;5021848;28;45706;-68
2023/12/07 01:46:32;;;;;;;;;23.00;20.50;;;;;7.92;77.09;101483.88;5040434;28;46388;-68
2023/12/07 01:48:58;;;;;;;;;25.75;24.25;;;;;7.64;76.96;101437.19;5029011;28;45726;-68
2023/12/07 01:51:23;;;;;;;;;20.75;18.50;;;;;7.89;77.32;101483.91;5051391;28;45450;-69
2023/12/07 01:53:49;;;;;;;;;27.50;24.00;;;;;7.74;77.51;101468.09;5042888;28;45255;-68
2023/12/07 01:56:16;;;;;;;;;18.25;14.50;;;;;7.91;77.35;101483.91;5042982;28;46057;-68
2023/12/07 01:58:41;;;;;;;;;29.00;23.75;;;;;7.78;77.32;101452.13;5031592;28;45442;-68
2023/12/07 02:01:07;;;;;;;;;21.75;21.25;;;;;7.87;77.38;101468.84;5045143;28;45423;-69
2023/12/07 02:03:32;;;;;;;;;26.75;25.25;;;;;8.01;77.13;101493.53;5039931;28;45305;-69
2023/12/07 02:05:58;;;;;;;;;22.50;21.75;;;;;7.86;77.12;101467.97;5055420;28;45590;-69
2023/12/07 02:08:24;;;;;;;;;24.75;21.75;;;;;7.77;76.89;101465.44;5042882;28;45521;-69
2023/12/07 02:10:49;;;;;;;;;23.25;21.75;;;;;7.91;77.08;101492.75;5040070;28;45350;-69
2023/12/07 02:13:15;;;;;;;;;23.25;22.00;;;;;8.00;77.41;101502.41;5040023;28;45465;-69
2023/12/07 02:15:40;;;;;;;;;21.50;18.00;;;;;7.73;77.16;101443.28;5021964;28;45547;-69
2023/12/07 02:18:18;;;;;;;;;17.75;17.00;;;;;8.06;76.71;101488.19;5037239;28;45321;-69
2023/12/07 02:21:02;;;;;;;;;21.75;21.75;;;;;7.73;76.90;101431.78;5040095;28;45397;-68
2023/12/07 02:23:29;;;;;;;;;27.25;22.75;;;;;7.79;76.84;101442.38;5048411;28;45446;-69
2023/12/07 02:26:02;;;;;;;;;24.25;18.25;;;;;7.78;76.83;101433.53;5049283;28;45518;-68
2023/12/07 02:28:27;;;;;;;;;22.50;19.50;;;;;7.61;76.71;101404.41;5054619;28;45498;-69
2023/12/07 02:30:52;;;;;;;;;26.25;22.25;;;;;8.04;77.21;101463.41;5039402;28;65574;-68
2023/12/07 02:33:18;;;;;;;;;26.50;23.50;;;;;7.81;76.74;101423.75;5044930;28;45234;-68
2023/12/07 02:35:43;;;;;;;;;26.25;19.75;;;;;7.89;77.04;101429.88;5035297;28;46224;-69
2023/12/07 02:38:09;;;;;;;;;19.00;16.25;;;;;8.04;76.91;101450.09;5043926;28;45296;-68
2023/12/07 02:40:35;;;;;;;;;22.00;19.25;;;;;7.93;76.79;101427.13;5045866;28;45518;-68
2023/12/07 02:43:02;;;;;;;;;18.00;17.00;;;;;8.02;76.87;101439.47;5039656;28;45510;-69
2023/12/07 02:45:29;;;;;;;;;27.75;21.50;;;;;8.19;76.55;101457.91;5036456;28;47791;-69
2023/12/07 02:47:54;;;;;;;;;20.50;18.00;;;;;8.03;76.44;101440.34;5051575;28;45410;-68
2023/12/07 02:50:19;;;;;;;;;13.00;12.75;;;;;7.85;76.43;101423.72;5044023;28;45761;-68
2023/12/07 02:52:45;;;;;;;;;21.50;18.25;;;;;7.94;76.10;101433.34;5030346;28;45483;-68
2023/12/07 02:55:10;;;;;;;;;25.75;22.25;;;;;8.01;76.62;101458.09;5061382;28;45273;-68
2023/12/07 02:57:36;;;;;;;;;20.00;18.25;;;;;7.81;76.42;101439.69;5048776;28;45297;-68
2023/12/07 03:00:08;;;;;;;;;19.75;18.75;;;;;8.02;76.53;101492.66;5039916;28;45366;-68
2023/12/07 03:02:38;;;;;;;;;20.50;18.75;;;;;7.90;76.17;101474.16;5031297;28;45697;-68
2023/12/07 03:05:04;;;;;;;;;21.00;18.50;;;;;8.03;77.18;101498.84;5062972;28;45417;-69
2023/12/07 03:07:30;;;;;;;;;21.75;18.25;;;;;7.94;76.47;101479.44;5067545;28;45593;-69
2023/12/07 03:09:56;;;;;;;;;22.25;19.00;;;;;8.06;76.65;101505.00;5039050;28;45447;-68
2023/12/07 03:12:22;;;;;;;;;14.50;11.25;;;;;7.93;76.55;101482.09;5039182;28;46145;-68
2023/12/07 03:14:48;;;;;;;;;17.50;12.75;;;;;7.91;76.32;101454.66;5038806;28;46361;-68
2023/12/07 03:17:13;;;;;;;;;21.25;17.25;;;;;7.67;76.05;101366.31;5039120;28;45504;-68
2023/12/07 03:19:39;;;;;;;;;18.75;17.50;;;;;7.76;76.30;101365.31;5039102;28;45520;-68
2023/12/07 03:22:06;;;;;;;;;25.00;21.75;;;;;7.72;76.28;101368.91;5039123;28;45509;-68
2023/12/07 03:24:32;;;;;;;;;23.50;18.50;;;;;7.79;76.62;101384.75;5038831;28;46302;-68
2023/12/07 03:26:57;;;;;;;;;27.25;23.75;;;;;7.83;76.30;101379.41;5033903;28;45406;-68
2023/12/07 03:29:23;;;;;;;;;22.00;19.25;;;;;7.57;76.26;101338.06;5022281;28;45372;-68
2023/12/07 03:31:48;;;;;;;;;21.25;18.75;;;;;7.72;76.48;101367.13;5049416;28;61848;-68
2023/12/07 03:34:15;;;;;;;;;21.75;16.75;;;;;7.51;77.08;101351.41;5053891;28;45243;-68
2023/12/07 03:36:41;;;;;;;;;21.50;19.00;;;;;7.63;76.40;101388.47;5039679;28;45375;-68
2023/12/07 03:39:07;;;;;;;;;22.50;17.75;;;;;7.47;76.78;101374.47;5059050;28;45412;-68
2023/12/07 03:41:32;;;;;;;;;21.50;19.25;;;;;7.65;77.17;101410.63;5049190;28;45478;-68
2023/12/07 03:43:57;;;;;;;;;20.75;20.25;;;;;7.38;77.38;101356.84;5038621;28;46133;-68
2023/12/07 03:46:23;;;;;;;;;18.00;17.50;;;;;7.42;76.75;101360.34;5038771;28;45455;-68
2023/12/07 03:48:48;;;;;;;;;22.25;18.00;;;;;7.41;76.86;101364.75;5033733;28;45785;-68
2023/12/07 03:51:16;;;;;;;;;20.25;18.25;;;;;7.61;76.88;101396.44;5038081;28;62974;-68
2023/12/07 03:53:42;;;;;;;;;18.00;17.25;;;;;7.67;77.27;101413.22;5037116;28;46146;-68
2023/12/07 03:56:08;;;;;;;;;19.50;15.75;;;;;7.55;77.56;101383.25;5056257;28;45667;-68
2023/12/07 03:58:33;;;;;;;;;22.25;18.75;;;;;7.59;77.23;101397.38;5041349;28;45257;-68
2023/12/07 04:00:58;;;;;;;;;19.00;17.25;;;;;7.38;76.99;101364.81;5038693;28;45241;-68
2023/12/07 04:03:24;;;;;;;;;21.50;19.50;;;;;7.36;77.21;101344.47;5038084;28;45454;-68
2023/12/07 04:05:49;;;;;;;;;20.25;17.75;;;;;7.59;77.94;101379.66;5052644;28;45318;-68
2023/12/07 04:08:15;;;;;;;;;13.50;12.00;;;;;7.51;77.31;101383.28;5049644;28;45520;-68
2023/12/07 04:10:40;;;;;;;;;15.75;15.25;;;;;7.38;77.10;101359.50;5038159;28;45543;-68
2023/12/07 04:13:06;;;;;;;;;21.25;17.00;;;;;7.35;77.57;101361.28;5039904;28;46286;-68
2023/12/07 04:15:31;;;;;;;;;20.50;16.00;;;;;7.47;77.39;101394.81;5033654;28;46286;-68
2023/12/07 04:17:57;;;;;;;;;16.50;15.25;;;;;7.41;77.72;101401.94;5040715;28;45312;-68
2023/12/07 04:20:22;;;;;;;;;21.50;19.00;;;;;7.36;77.65;101394.94;5041657;28;45561;-68
2023/12/07 04:22:47;;;;;;;;;18.00;17.25;;;;;7.41;77.93;101393.97;5043359;28;47075;-68
2023/12/07 04:25:13;;;;;;;;;18.25;16.50;;;;;7.53;78.09;101410.72;5071625;28;45814;-68
2023/12/07 04:27:38;;;;;;;;;17.75;14.50;;;;;7.57;78.19;101404.50;5047301;28;45446;-68
2023/12/07 04:30:04;;;;;;;;;22.75;19.50;;;;;7.65;77.81;101423.00;5033375;28;45422;-68
2023/12/07 04:32:30;;;;;;;;;24.75;20.25;;;;;7.55;77.69;101395.63;5061495;28;46435;-68
2023/12/07 04:34:55;;;;;;;;;22.00;17.50;;;;;7.59;77.43;101402.69;5054224;28;46042;-68
2023/12/07 04:37:21;;;;;;;;;18.00;18.00;;;;;7.70;77.90;101410.53;5049129;28;45308;-68
2023/12/07 04:39:46;;;;;;;;;22.75;21.25;;;;;7.66;77.82;101391.09;5052902;28;45587;-68
2023/12/07 04:42:11;;;;;;;;;20.75;17.25;;;;;7.60;77.84;101393.81;5041281;28;46466;-68
2023/12/07 04:44:37;;;;;;;;;19.50;15.00;;;;;7.51;77.55;101386.81;5032125;28;45342;-68
2023/12/07 04:47:02;;;;;;;;;22.00;18.50;;;;;7.23;78.10;101338.38;5030047;28;46193;-68
2023/12/07 04:49:28;;;;;;;;;17.25;17.00;;;;;7.63;78.04;101392.91;5051932;28;45745;-68
2023/12/07 04:51:53;;;;;;;;;21.00;16.25;;;;;7.56;78.38;101378.81;5041156;28;45320;-68
2023/12/07 04:54:19;;;;;;;;;20.50;18.00;;;;;7.57;77.83;101373.47;5032056;28;45315;-68
2023/12/07 04:56:44;;;;;;;;;19.00;16.50;;;;;7.57;78.18;101373.47;5059285;28;45581;-68
2023/12/07 04:59:10;;;;;;;;;22.25;20.25;;;;;7.51;78.21;101359.38;5049586;28;45323;-68
2023/12/07 05:01:38;;;;;;;;;15.75;15.75;;;;;7.37;78.27;101317.88;5040882;28;55625;-68
2023/12/07 05:04:04;;;;;;;;;22.00;19.50;;;;;7.39;77.94;101324.06;5040956;28;45456;-68
2023/12/07 05:06:34;;;;;;;;;26.25;18.75;;;;;7.39;77.85;101328.50;5058254;28;45392;-68
2023/12/07 05:08:59;;;;;;;;;20.50;19.50;;;;;7.32;78.07;101317.06;5043843;28;45532;-68
2023/12/07 05:11:24;;;;;;;;;21.00;16.25;;;;;7.56;77.69;101352.25;5040685;28;46429;-68
2023/12/07 05:13:50;;;;;;;;;22.25;17.75;;;;;7.25;78.18;101304.75;5041018;28;45496;-68
2023/12/07 05:16:15;;;;;;;;;14.25;12.75;;;;;7.35;78.21;101322.34;5040933;28;45347;-68
2023/12/07 05:18:41;;;;;;;;;25.00;20.00;;;;;7.43;78.17;101330.22;5035871;28;45437;-68
2023/12/07 05:21:07;;;;;;;;;20.75;19.00;;;;;7.43;77.98;101319.59;5039570;28;47743;-69
2023/12/07 05:23:33;;;;;;;;;23.00;16.75;;;;;7.23;78.17;101298.53;5022217;28;45432;-68
2023/12/07 05:25:58;;;;;;;;;19.75;18.00;;;;;7.16;77.86;101272.97;5052568;28;45552;-68
2023/12/07 05:28:25;;;;;;;;;20.50;20.00;;;;;7.28;77.81;101288.75;5033051;28;45458;-68
2023/12/07 05:30:50;;;;;;;;;18.75;12.75;;;;;7.23;77.73;101280.84;5056988;28;45682;-68
2023/12/07 05:33:16;;;;;;;;;18.50;17.00;;;;;7.29;77.49;101295.84;5050898;28;45343;-68
2023/12/07 05:35:41;;;;;;;;;16.75;16.50;;;;;7.08;77.68;101274.81;5052731;28;45437;-68
2023/12/07 05:38:06;;;;;;;;;20.25;18.75;;;;;7.27;77.53;101324.19;5046063;28;45297;-68
2023/12/07 05:40:33;;;;;;;;;19.50;17.50;;;;;7.09;77.89;101289.84;5058863;28;47292;-68
2023/12/07 05:42:59;;;;;;;;;21.75;19.00;;;;;7.15;77.76;101311.91;5040770;28;45590;-68
2023/12/07 05:45:24;;;;;;;;;19.75;17.75;;;;;7.03;77.82;101304.94;5037236;28;45348;-68
2023/12/07 05:47:49;;;;;;;;;24.75;19.75;;;;;7.08;77.81;101307.53;5057439;28;45375;-68
2023/12/07 05:50:15;;;;;;;;;19.50;17.50;;;;;7.28;77.87;101339.22;5045425;28;52504;-68
2023/12/07 05:52:40;;;;;;;;;22.00;20.00;;;;;7.11;77.56;101306.63;5030382;28;45466;-68
2023/12/07 05:55:06;;;;;;;;;17.50;16.00;;;;;7.05;77.94;101302.28;5059349;28;45755;-69
2023/12/07 05:57:31;;;;;;;;;21.50;20.00;;;;;7.14;77.59;101311.94;5042187;28;45375;-68
2023/12/07 05:59:57;;;;;;;;;22.00;18.25;;;;;7.01;77.58;101279.28;5045280;28;45383;-68
2023/12/07 06:02:22;;;;;;;;;16.50;16.25;;;;;7.31;77.78;101330.34;5030513;28;45491;-68
2023/12/07 06:04:47;;;;;;;;;20.25;19.00;;;;;7.18;77.78;101297.72;5059892;28;45399;-68
2023/12/07 06:07:13;;;;;;;;;17.00;17.00;;;;;7.21;77.59;101292.38;5056010;28;45355;-69
2023/12/07 06:09:38;;;;;;;;;20.50;16.25;;;;;7.22;77.56;101296.81;5053702;28;45509;-68
2023/12/07 06:12:04;;;;;;;;;18.50;12.50;;;;;7.10;77.76;101273.00;5040038;28;45378;-68
2023/12/07 06:14:29;;;;;;;;;18.75;18.00;;;;;7.19;78.50;101299.47;5040011;28;45409;-68
2023/12/07 06:16:55;;;;;;;;;16.50;15.00;;;;;7.21;77.54;101298.56;5040088;28;45591;-68
2023/12/07 06:19:21;;;;;;;;;17.25;16.00;;;;;7.02;77.66;101263.34;5051285;28;46968;-68
2023/12/07 06:21:46;;;;;;;;;18.75;17.00;;;;;7.19;77.42;101299.47;5051869;28;45328;-69
2023/12/07 06:24:11;;;;;;;;;21.00;18.00;;;;;7.08;77.85;101282.75;5040036;28;45300;-68
2023/12/07 06:26:37;;;;;;;;;18.00;15.25;;;;;7.16;77.54;101286.22;5030260;28;45336;-68
2023/12/07 06:29:02;;;;;;;;;19.25;17.50;;;;;7.32;77.83;101301.13;5040976;28;55635;-68
2023/12/07 06:31:27;;;;;;;;;14.75;12.00;;;;;7.24;77.71;101271.09;5071559;28;46852;-68
2023/12/07 06:33:53;;;;;;;;;21.50;21.00;;;;;7.16;77.89;101255.25;5057909;28;45541;-68
2023/12/07 06:36:20;;;;;;;;;15.75;15.75;;;;;7.24;77.74;101263.13;5048401;28;45272;-68
2023/12/07 06:38:45;;;;;;;;;18.25;15.25;;;;;7.48;77.72;101299.16;5034628;28;48126;-68
2023/12/07 06:41:11;;;;;;;;;18.00;15.50;;;;;7.45;77.97;101285.06;5047792;28;45411;-68
2023/12/07 06:43:36;;;;;;;;;19.25;17.75;;;;;7.41;77.61;101277.09;5053192;28;45469;-68
2023/12/07 06:46:02;;;;;;;;;14.50;14.50;;;;;7.42;77.63;101276.22;5039706;28;45351;-68
2023/12/07 06:48:27;;;;;;;;;16.75;15.00;;;;;7.44;77.29;101270.91;5046481;28;46420;-68
2023/12/07 06:50:52;;;;;;;;;19.25;15.00;;;;;7.34;77.56;101240.91;5039610;28;45389;-68
2023/12/07 06:53:18;;;;;;;;;19.75;16.50;;;;;7.42;77.56;101246.13;5034859;28;45470;-68
2023/12/07 06:55:44;;;;;;;;;19.50;18.75;;;;;7.30;77.06;101238.28;5041334;28;45340;-69
2023/12/07 06:58:09;;;;;;;;;14.25;12.00;;;;;7.32;77.38;101240.03;5053844;28;45844;-69
2023/12/07 07:00:36;;;;;;;;;23.25;16.50;;;;;7.14;77.44;101195.09;5028358;28;46161;-68
2023/12/07 07:03:01;;;;;;;;;18.25;15.75;;;;;7.27;77.47;101223.28;5027870;28;45449;-68
2023/12/07 07:05:27;;;;;;;;;11.50;10.75;;;;;7.22;77.22;101222.44;5033485;28;45959;-68
2023/12/07 07:07:52;;;;;;;;;17.75;17.00;;;;;7.22;76.82;101214.50;5050519;28;45619;-68
2023/12/07 07:10:17;;;;;;;;;14.75;13.25;;;;;7.47;77.59;101262.00;5023757;28;45407;-68
2023/12/07 07:12:44;;;;;;;;;14.75;12.00;;;;;7.14;77.44;101200.41;5044029;28;45266;-67
2023/12/07 07:15:09;;;;;;;;;18.50;15.50;;;;;7.46;77.29;101260.25;5039436;28;45385;-69
2023/12/07 07:17:35;;;;;;;;;15.50;15.50;;;;;7.41;77.78;101262.97;5047355;28;45381;-69
2023/12/07 07:20:00;;;;;;;;;17.00;14.75;;;;;7.30;77.14;101244.50;5044158;28;45430;-69
2023/12/07 07:22:26;;;;;;;;;18.00;14.00;;;;;7.36;77.40;101259.47;5021224;28;45550;-68
2023/12/07 07:24:52;;;;;;;;;16.25;15.25;;;;;7.17;77.41;101232.25;5035503;28;45439;-68
2023/12/07 07:27:17;;;;;;;;;20.75;16.00;;;;;7.40;77.37;101270.06;5038307;28;46994;-68
2023/12/07 07:29:43;;;;;;;;;18.25;16.50;;;;;7.29;77.29;101253.34;5050285;28;45371;-68
2023/12/07 07:32:08;;;;;;;;;18.00;17.00;;;;;7.13;77.68;101219.88;5051838;28;45456;-71
2023/12/07 07:34:34;;;;;;;;;15.25;14.25;;;;;7.36;77.49;101259.47;5051960;28;45407;-71
2023/12/07 07:36:59;;;;;;;;;18.50;15.75;;;;;7.31;77.83;101240.06;5038002;28;46793;-71
2023/12/07 07:39:24;;;;;;;;;16.75;15.25;;;;;7.33;77.61;101251.53;5026501;28;45526;-71
2023/12/07 07:41:50;;;;;;;;;16.50;16.50;;;;;7.53;77.19;101273.44;5038699;28;45561;-71
2023/12/07 07:44:15;;;;;;;;;16.50;16.25;;;;;7.55;77.03;101279.63;5039274;28;71718;-71
2023/12/07 07:46:40;;;;;;;;;18.00;17.00;;;;;7.56;77.07;101284.03;5039864;28;75174;-72
2023/12/07 07:49:06;;;;;;;;;16.25;16.25;;;;;7.50;76.84;101272.59;5041587;28;45315;-71
2023/12/07 07:51:32;;;;;;;;;21.00;14.00;;;;;7.48;77.40;101263.78;5040710;28;45437;-71
2023/12/07 07:53:58;;;;;;;;;20.50;15.00;;;;;7.52;77.05;101265.50;5044520;28;45433;-71
2023/12/07 07:56:24;;;;;;;;;19.75;17.00;;;;;7.50;77.52;101260.22;5042148;28;46314;-68
2023/12/07 07:58:49;;;;;;;;;26.25;20.00;;;;;7.50;77.15;101251.34;5047373;28;62037;-69
2023/12/07 08:01:15;;;;;;;;;17.75;15.00;;;;;7.45;77.22;101239.91;5044708;28;63740;-70
2023/12/07 08:03:40;;;;;;;;;16.75;15.50;;;;;7.37;77.06;101240.88;5049172;28;45452;-70
2023/12/07 08:06:07;;;;;;;;;13.75;13.75;;;;;7.24;77.11;101223.31;5054175;28;46449;-70
2023/12/07 08:08:32;;;;;;;;;16.00;16.00;;;;;7.04;77.24;101202.28;5038996;28;45498;-69
2023/12/07 08:10:57;;;;;;;;;18.75;15.75;;;;;7.18;77.62;101205.69;5050064;28;55615;-69
2023/12/07 08:13:23;;;;;;;;;21.75;18.50;;;;;7.21;77.26;101207.41;5046997;28;45450;-69
2023/12/07 08:15:48;;;;;;;;;17.00;16.75;;;;;7.49;77.35;101246.94;5056922;28;45976;-69
2023/12/07 08:18:14;;;;;;;;;19.25;17.50;;;;;7.29;77.65;101189.63;5027907;28;45537;-69
2023/12/07 08:20:39;;;;;;;;;18.75;14.25;;;;;7.26;77.00;101181.69;5053831;28;45510;-69
2023/12/07 08:23:05;;;;;;;;;21.25;16.25;;;;;7.14;77.01;101163.25;5054330;28;45391;-68
2023/12/07 08:25:31;;;;;;;;;19.75;17.25;;;;;7.53;77.30;101219.44;5037862;28;46143;-69
2023/12/07 08:27:57;;;;;;;;;22.25;18.25;;;;;7.54;77.02;101219.41;5029900;28;45879;-69
2023/12/07 08:30:23;;;;;;;;;20.50;17.50;;;;;7.11;77.10;101136.72;5057855;28;45241;-69
2023/12/07 08:32:48;;;;;;;;;16.50;15.75;;;;;7.36;77.17;101175.34;5046082;28;45505;-69
2023/12/07 08:35:13;;;;;;;;;22.50;16.25;;;;;7.48;76.43;101200.00;5030974;28;47091;-69
2023/12/07 08:37:39;;;;;;;;;18.75;16.50;;;;;7.47;77.43;101198.25;5050581;28;45766;-69
2023/12/07 08:40:07;;;;;;;;;16.25;14.75;;;;;7.21;76.84;101155.16;5055836;28;45599;-69
2023/12/07 08:42:32;;;;;;;;;18.00;17.50;;;;;7.21;76.90;101160.47;5052407;28;45561;-69
2023/12/07 08:44:58;;;;;;;;;16.25;14.25;;;;;7.21;77.26;101154.31;5054529;28;45484;-70
2023/12/07 08:47:23;;;;;;;;;10.00;7.00;;;;;7.29;76.96;101160.41;5035148;28;45658;-69
2023/12/07 08:49:49;;;;;;;;;14.75;13.25;;;;;7.32;77.66;101172.78;5056682;28;45341;-69
2023/12/07 08:52:14;;;;;;;;;17.00;14.50;;;;;7.26;77.36;101168.41;5039316;28;45482;-69
2023/12/07 08:54:39;;;;;;;;;16.50;13.00;;;;;7.19;77.30;101145.47;5053127;28;45520;-69
2023/12/07 08:57:05;;;;;;;;;13.00;12.50;;;;;7.41;77.14;101172.66;5037116;28;45403;-69
2023/12/07 08:59:30;;;;;;;;;18.75;15.50;;;;;7.20;76.73;101148.13;5053557;28;45492;-69
2023/12/07 09:01:56;;;;;;;;;18.75;16.25;;;;;7.32;77.39;101148.88;5051238;28;45516;-69
2023/12/07 09:04:21;;;;;;;;;15.00;11.75;;;;;7.15;76.97;101115.44;5034501;28;47938;-69
2023/12/07 09:06:47;;;;;;;;;17.75;16.00;;;;;7.39;77.34;101158.50;5052306;28;45383;-69
2023/12/07 09:09:12;;;;;;;;;15.25;14.50;;;;;7.38;77.19;101144.38;5036260;28;45457;-69
2023/12/07 09:11:37;;;;;;;;;20.25;16.25;;;;;7.38;76.93;101138.16;5024917;28;45877;-69
2023/12/07 09:14:03;;;;;;;;;15.50;12.75;;;;;7.65;77.02;101184.75;5036287;28;47341;-69
2023/12/07 09:16:28;;;;;;;;;16.00;14.75;;;;;7.64;76.41;101169.69;5021178;28;45318;-69
2023/12/07 09:18:54;;;;;;;;;15.50;13.50;;;;;7.67;76.44;101166.09;5032987;28;45502;-69
2023/12/07 09:21:19;;;;;;;;;18.50;13.25;;;;;7.42;76.30;101116.84;5031276;28;45478;-69
2023/12/07 09:23:45;;;;;;;;;17.50;16.25;;;;;7.52;76.50;101132.69;5035535;28;46327;-69
2023/12/07 09:26:10;;;;;;;;;15.50;12.25;;;;;7.64;76.71;101136.94;5039283;28;45439;-69
2023/12/07 09:28:35;;;;;;;;;16.00;13.00;;;;;7.29;76.08;101077.22;5045090;28;45390;-69
2023/12/07 09:31:01;;;;;;;;;14.00;12.75;;;;;7.68;75.83;101131.53;5039578;28;45628;-69
2023/12/07 09:33:26;;;;;;;;;12.00;12.00;;;;;7.44;76.51;101081.44;5024996;28;45460;-69
2023/12/07 09:35:51;;;;;;;;;16.25;12.50;;;;;7.54;75.75;101097.22;5031111;28;45458;-69
2023/12/07 09:38:17;;;;;;;;;14.00;12.75;;;;;7.52;75.72;101096.38;5040091;28;45485;-69
2023/12/07 09:40:43;;;;;;;;;17.50;15.25;;;;;7.44;75.96;101079.66;5034880;28;45343;-69
2023/12/07 09:43:09;;;;;;;;;20.75;16.75;;;;;7.51;75.72;101096.38;5037786;28;47206;-69
2023/12/07 09:45:34;;;;;;;;;16.25;15.50;;;;;7.47;75.79;101068.09;5031059;28;45555;-69
2023/12/07 09:48:00;;;;;;;;;16.50;15.75;;;;;7.36;75.54;101050.53;5020907;28;45434;-69
2023/12/07 09:50:30;;;;;;;;;15.00;13.75;;;;;7.63;75.49;101088.22;5020565;28;45525;-69
2023/12/07 09:52:58;;;;;;;;;14.75;14.00;;;;;7.56;75.69;101075.94;5032067;28;46131;-69
2023/12/07 09:55:24;;;;;;;;;13.00;13.00;;;;;7.60;75.54;101074.97;5022406;28;45691;-69
2023/12/07 09:57:51;;;;;;;;;13.25;13.00;;;;;7.69;75.69;101077.50;5023571;28;45414;-69
2023/12/07 10:00:17;;;;;;;;;11.75;10.50;;;;;7.49;75.42;101042.41;5033777;28;45899;-69
2023/12/07 10:02:45;;;;;;;;;16.25;12.50;;;;;7.85;75.08;101070.19;5018783;28;48236;-69
2023/12/07 10:05:16;;;;;;;;;9.25;9.25;;;;;7.76;74.84;101057.03;5036479;28;45716;-69
2023/12/07 10:07:47;;;;;;;;;11.75;11.00;;;;;7.82;75.03;101059.59;5040134;28;45320;-69
2023/12/07 10:10:13;;;;;;;;;13.25;12.00;;;;;7.68;75.05;101035.03;5044718;28;45615;-69
2023/12/07 10:12:47;;;;;;;;;13.00;11.75;;;;;7.81;74.83;101041.03;5058938;28;46489;-70
2023/12/07 10:15:16;;;;;;;;;13.25;12.00;;;;;7.73;75.42;101031.38;5049877;28;45542;-69
2023/12/07 10:18:01;;;;;;;;;12.00;10.75;;;;;7.79;75.57;101028.63;5032391;28;45657;-68
2023/12/07 10:20:28;;;;;;;;;14.25;14.00;;;;;7.89;74.56;101037.34;5059782;28;45355;-69
2023/12/07 10:23:02;;;;;;;;;13.00;12.00;;;;;7.85;75.13;101024.13;5032992;28;48160;-71
2023/12/07 10:25:29;;;;;;;;;12.25;11.25;;;;;7.71;74.97;101008.41;5048386;28;45386;-68
2023/12/07 10:27:54;;;;;;;;;12.50;12.00;;;;;7.75;74.66;101011.00;5038692;28;45360;-68
2023/12/07 10:30:25;;;;;;;;;11.00;11.00;;;;;7.51;74.28;100969.75;5027210;28;45515;-69
2023/12/07 10:32:51;;;;;;;;;16.75;12.25;;;;;7.96;74.44;101024.81;5051500;28;45484;-69
2023/12/07 10:35:18;;;;;;;;;13.00;12.00;;;;;7.82;74.30;101002.91;5038324;28;45534;-69
2023/12/07 10:37:43;;;;;;;;;13.50;12.50;;;;;7.81;74.35;100987.88;5048072;28;45462;-69
2023/12/07 10:40:09;;;;;;;;;9.75;9.75;;;;;7.72;74.03;100965.00;5033677;28;45791;-69
2023/12/07 10:42:36;;;;;;;;;13.00;12.00;;;;;7.78;74.40;100984.38;5039235;28;48142;-69
2023/12/07 10:45:05;;;;;;;;;13.25;11.00;;;;;7.55;74.24;100928.06;5026445;28;45522;-68
2023/12/07 10:47:35;;;;;;;;;12.50;11.50;;;;;7.91;73.61;100986.81;5054062;28;45504;-69
2023/12/07 10:50:05;;;;;;;;;13.50;13.00;;;;;8.09;74.23;101009.53;5056184;28;45599;-69
2023/12/07 10:52:32;;;;;;;;;13.75;12.00;;;;;8.08;74.13;100999.78;5034215;28;47043;-68
2023/12/07 10:55:03;;;;;;;;;14.00;13.25;;;;;7.94;73.49;100963.69;5057990;28;45736;-69
2023/12/07 10:57:32;;;;;;;;;10.25;8.25;;;;;7.92;73.57;100965.53;5050266;28;45548;-68
2023/12/07 11:00:00;;;;;;;;;5.75;5.25;;;;;8.10;73.91;100992.66;5032504;28;45442;-69
2023/12/07 11:02:28;;;;;;;;;13.75;12.00;;;;;7.93;73.35;100953.97;5051702;28;45477;-69
2023/12/07 11:04:59;;;;;;;;;11.75;10.25;;;;;7.82;73.35;100937.34;5057208;28;45509;-69
2023/12/07 11:07:51;;;;;;;;;15.00;13.75;;;;;7.84;73.81;100921.38;5030461;28;45351;-69
2023/12/07 11:10:34;;;;;;;;;13.00;12.75;;;;;8.13;73.69;100955.38;5038264;28;45610;-68
2023/12/07 11:13:17;;;;;;;;;12.25;10.25;;;;;7.71;73.29;100878.19;5034330;28;47679;-68